Eden, New York
Current Conditions -  °F | °C
As of 6:28 AM on Tuesday 21 Oct 2014 (Local Time) from KDKK Reporting Station
Overcast Overcast  
Wind Chill: 52°   Ceiling: 2000
Heat Index: 52°   Visibility: 9mi
Dew Point: 49°   Wind: 9mph
Humidity: 89%   Direction: 300°WNW
Pressure: 29.81"   Gusts: NA
Location:  42.65°N, 78.9°W
Report Text: KDKK 211028Z AUTO 30008KT 9SM SCT014 BKN020 OVC030 11/09 A2981 RMK AO2 T01110094
Loading
Personal Weather Stations






























Interactive Weather Map
Tropical Storm Tracking
New forecast layout! Learn more

10-Day Weather Forecast

Advertisements
Track Severe Weather on mobile